Lorraine, KS

11:26 PM CDT on July 12, 2014 (GMT -0500)
Wilson (KKSWILSO2) Elev 1689 ft | 38.82 °N, 98.47 °W | Change Station

Current weather conditions updated 25 minutes ago

Overcast
Overcast
85.2 °F
Feels Like 89 °F
N
5.0
Wind Variable Wind from WNW
Gusts 6.2 mph

Tomorrow is forecast to be Cooler than today.

Today
High -- | Low -- °F
--% Chance of Precip.
Yesterday
High -- | Low -- °F
Precip. -- in
6:19 AM 8:58 PM
Full, 99% visible
Pressure 29.99 in
Visibility 10.0 miles
Clouds Overcast 10000 ft
Heat Index 89 °F
Dew Point 68 °F
Humidity 57%
Rainfall 0.00 in
Snow Depth Not available.
UV 0 out of 12
Pollen 4.90 out of 12
Air Quality Not available.
Flu Activity No Activity
METAR KGBD 130415Z AUTO 18008KT 10SM OVC100 28/19 A2999 RMK AO1

More Conditions Fewer Conditions

Pressure 29.99 in
Visibility 10.0 miles
Clouds Overcast 10000 ft
Heat Index 89 °F
Dew Point 68 °F
Humidity 57%
Rainfall 0.00 in
Snow Depth Not available.
UV 0 out of 12
Pollen 4.90 out of 12
Air Quality Not available.
Flu Activity No Activity
METAR KGBD 130415Z AUTO 18008KT 10SM OVC100 28/19 A2999 RMK AO1

More Conditions Fewer Conditions

10-Day Weather Forecast

Almanac

Astronomy

Jul. 12, 2014 Rise Set
Actual Time 6:19 AM CDT 8:58 PM CDT
Civil Twilight 5:47 AM CDT 9:29 PM CDT
Nautical Twilight 5:09 AM CDT 10:08 PM CDT
Astronomical Twilight 4:25 AM CDT 10:51 PM CDT
Moon 9:03 PM CDT (7/12) 6:39 AM CDT (7/12)
Length of Visible Light 15h 41m
Length of Day
14h 39m
Tomorrow will be 1m 9s shorter.
Full, 99% of the Moon is Illuminated
Jul 13
Full
Jul 18
Last Quarter
Jul 26
New
Aug 3
First Quarter
Aug 10
Full

Today's Extremes

State Highs State Lows

Community

WunderPhotos

Upload Photos

1,733,094 photos uploaded!

WunderBlogs® & News

Nearby

Snow Depth

Station Depth Elevation
No new snow has been reported.

Earthquake Activity

City Distance Mag. Time & Date
Helena, Oklahoma 130 miles 3.0 2:44 AM CDT
2014-07-07
Cherokee, Oklahoma 119 miles 2.5 10:52 PM CDT
2014-07-06
Cherokee, Oklahoma 126 miles 2.8 10:43 AM CDT
2014-07-06
Medford, Oklahoma 129 miles 3.1 10:22 AM CDT
2014-07-06
Minimum magnitude displayed is 2.5.

Coastal Water Temperatures

Place Temperature
No Stations Reporting

Nearby Weather Stations

Station Location Temp. Heat Index Dew Point Humidity Wind Precip. Elev Updated Type
MesoWest WILSON , Wilson, KS 93 °F 89 °F - - North  at  - 0.00 in / hr 1687 ft 7:35 PM CDT MADIS
MesoWest TRCOTA , Kanopolis, KS 87 °F 84 °F - - North  at  - 0.00 in / hr 1580 ft 8:25 PM CDT MADIS
Wilson, Wilson, KS 85.2 °F 89 °F 68 °F 57% WNW  at  5.0 mph 0.00 in / hr 1689 ft 11:00 PM CDT Rapid Fire
Ellinwood High School, Ellinwood, KS 82.8 °F 86 °F 68 °F 60% South  at  6.9 mph 0.00 in / hr 1811 ft 11:26 PM CDT Rapid Fire

Show More Stations Show Fewer Stations